sensor_id;sensor_type;location;lat;lon;timestamp;pressure;altitude;pressure_sealevel;temperature;humidity
72061;BME280;59925;52.136;5.420;2024-03-29T00:00:40;99123.94;;;8.05;78.22
72061;BME280;59925;52.136;5.420;2024-03-29T00:03:06;99123.72;;;8.01;78.83
72061;BME280;59925;52.136;5.420;2024-03-29T00:05:33;99123.81;;;7.96;78.47
72061;BME280;59925;52.136;5.420;2024-03-29T00:07:58;99112.94;;;7.92;79.16
72061;BME280;59925;52.136;5.420;2024-03-29T00:10:24;99111.34;;;7.91;79.54
72061;BME280;59925;52.136;5.420;2024-03-29T00:12:49;99105.22;;;7.91;79.25
72061;BME280;59925;52.136;5.420;2024-03-29T00:15:15;99111.47;;;7.86;79.46
72061;BME280;59925;52.136;5.420;2024-03-29T00:17:41;99110.75;;;7.80;79.35
72061;BME280;59925;52.136;5.420;2024-03-29T00:20:06;99113.91;;;7.82;79.44
72061;BME280;59925;52.136;5.420;2024-03-29T00:22:33;99117.94;;;7.80;79.44
72061;BME280;59925;52.136;5.420;2024-03-29T00:24:59;99122.78;;;7.78;79.78
72061;BME280;59925;52.136;5.420;2024-03-29T00:27:25;99112.69;;;7.75;79.94
72061;BME280;59925;52.136;5.420;2024-03-29T00:29:52;99115.66;;;7.73;79.75
72061;BME280;59925;52.136;5.420;2024-03-29T00:32:21;99114.88;;;7.73;80.12
72061;BME280;59925;52.136;5.420;2024-03-29T00:34:50;99127.72;;;7.71;79.98
72061;BME280;59925;52.136;5.420;2024-03-29T00:37:16;99128.59;;;7.66;80.24
72061;BME280;59925;52.136;5.420;2024-03-29T00:39:42;99131.25;;;7.66;80.57
72061;BME280;59925;52.136;5.420;2024-03-29T00:42:08;99139.53;;;7.64;80.72
72061;BME280;59925;52.136;5.420;2024-03-29T00:44:43;99134.19;;;7.64;80.89
72061;BME280;59925;52.136;5.420;2024-03-29T00:47:09;99141.94;;;7.66;80.75
72061;BME280;59925;52.136;5.420;2024-03-29T00:49:35;99147.75;;;7.68;80.82
72061;BME280;59925;52.136;5.420;2024-03-29T00:52:02;99148.34;;;7.65;80.83
72061;BME280;59925;52.136;5.420;2024-03-29T00:54:28;99146.47;;;7.65;80.70
72061;BME280;59925;52.136;5.420;2024-03-29T00:56:53;99147.84;;;7.63;81.20
72061;BME280;59925;52.136;5.420;2024-03-29T00:59:19;99148.63;;;7.63;80.89
72061;BME280;59925;52.136;5.420;2024-03-29T01:01:46;99155.03;;;7.62;81.35
72061;BME280;59925;52.136;5.420;2024-03-29T01:04:11;99148.34;;;7.65;81.01
72061;BME280;59925;52.136;5.420;2024-03-29T01:06:38;99155.03;;;7.62;81.01
72061;BME280;59925;52.136;5.420;2024-03-29T01:09:04;99159.00;;;7.65;81.43
72061;BME280;59925;52.136;5.420;2024-03-29T01:11:30;99145.44;;;7.61;81.52
72061;BME280;59925;52.136;5.420;2024-03-29T01:13:56;99148.91;;;7.62;81.57
72061;BME280;59925;52.136;5.420;2024-03-29T01:16:21;99147.53;;;7.64;81.51
72061;BME280;59925;52.136;5.420;2024-03-29T01:18:47;99148.91;;;7.62;81.85
72061;BME280;59925;52.136;5.420;2024-03-29T01:21:13;99143.88;;;7.60;81.75
72061;BME280;59925;52.136;5.420;2024-03-29T01:23:39;99138.25;;;7.62;81.93
72061;BME280;59925;52.136;5.420;2024-03-29T01:26:06;99135.28;;;7.63;81.68
72061;BME280;59925;52.136;5.420;2024-03-29T01:28:32;99141.22;;;7.60;81.91
72061;BME280;59925;52.136;5.420;2024-03-29T01:30:57;99132.72;;;7.58;82.02
72061;BME280;59925;52.136;5.420;2024-03-29T01:33:26;99129.25;;;7.58;82.14
72061;BME280;59925;52.136;5.420;2024-03-29T01:35:52;99136.16;;;7.59;82.49
72061;BME280;59925;52.136;5.420;2024-03-29T01:38:18;99131.91;;;7.58;82.35
72061;BME280;59925;52.136;5.420;2024-03-29T01:40:43;99122.81;;;7.59;82.60
72061;BME280;59925;52.136;5.420;2024-03-29T01:43:09;99126.00;;;7.61;82.23
72061;BME280;59925;52.136;5.420;2024-03-29T01:45:36;99116.72;;;7.58;82.19
72061;BME280;59925;52.136;5.420;2024-03-29T01:48:07;99119.06;;;7.60;82.20
72061;BME280;59925;52.136;5.420;2024-03-29T01:50:34;99117.50;;;7.59;81.92
72061;BME280;59925;52.136;5.420;2024-03-29T01:53:01;99111.16;;;7.55;81.88
72061;BME280;59925;52.136;5.420;2024-03-29T01:55:27;99112.31;;;7.48;82.02
72061;BME280;59925;52.136;5.420;2024-03-29T01:57:52;99098.19;;;7.48;82.27
72061;BME280;59925;52.136;5.420;2024-03-29T02:00:19;99094.66;;;7.53;81.90
72061;BME280;59925;52.136;5.420;2024-03-29T02:02:45;99092.06;;;7.47;81.94
72061;BME280;59925;52.136;5.420;2024-03-29T02:05:11;99092.66;;;7.44;82.25
72061;BME280;59925;52.136;5.420;2024-03-29T02:07:37;99095.31;;;7.44;82.16
72061;BME280;59925;52.136;5.420;2024-03-29T02:10:03;99100.66;;;7.44;82.06
72061;BME280;59925;52.136;5.420;2024-03-29T02:12:30;99093.72;;;7.43;82.02
72061;BME280;59925;52.136;5.420;2024-03-29T02:14:55;99096.69;;;7.42;81.90
72061;BME280;59925;52.136;5.420;2024-03-29T02:17:21;99100.81;;;7.34;81.98
72061;BME280;59925;52.136;5.420;2024-03-29T02:19:46;99114.16;;;7.34;82.19
72061;BME280;59925;52.136;5.420;2024-03-29T02:22:15;99118.75;;;7.28;82.20
72061;BME280;59925;52.136;5.420;2024-03-29T02:24:41;99125.16;;;7.27;81.93
72061;BME280;59925;52.136;5.420;2024-03-29T02:27:07;99114.31;;;7.24;82.08
72061;BME280;59925;52.136;5.420;2024-03-29T02:29:35;99132.97;;;7.24;82.41
72061;BME280;59925;52.136;5.420;2024-03-29T02:32:03;99136.41;;;7.24;82.61
72061;BME280;59925;52.136;5.420;2024-03-29T02:34:28;99142.34;;;7.21;82.56
72061;BME280;59925;52.136;5.420;2024-03-29T02:36:54;99144.19;;;7.20;82.66
72061;BME280;59925;52.136;5.420;2024-03-29T02:39:20;99127.91;;;7.22;82.68
72061;BME280;59925;52.136;5.420;2024-03-29T02:41:45;99133.53;;;7.20;82.79
72061;BME280;59925;52.136;5.420;2024-03-29T02:44:11;99146.84;;;7.20;83.06
72061;BME280;59925;52.136;5.420;2024-03-29T02:46:36;99138.84;;;7.20;82.95
72061;BME280;59925;52.136;5.420;2024-03-29T02:49:02;99141.22;;;7.22;82.81
72061;BME280;59925;52.136;5.420;2024-03-29T02:51:27;99141.22;;;7.22;82.82
72061;BME280;59925;52.136;5.420;2024-03-29T02:53:53;99143.13;;;7.21;83.26
72061;BME280;59925;52.136;5.420;2024-03-29T02:56:18;99142.03;;;7.23;83.04
72061;BME280;59925;52.136;5.420;2024-03-29T02:58:46;99136.41;;;7.24;82.78
72061;BME280;59925;52.136;5.420;2024-03-29T03:01:12;99126.56;;;7.25;82.83
72061;BME280;59925;52.136;5.420;2024-03-29T03:03:37;99126.56;;;7.25;82.90
72061;BME280;59925;52.136;5.420;2024-03-29T03:06:04;99133.75;;;7.24;82.98
72061;BME280;59925;52.136;5.420;2024-03-29T03:08:30;99138.28;;;7.24;82.90
72061;BME280;59925;52.136;5.420;2024-03-29T03:11:15;99130.81;;;7.26;83.07
72061;BME280;59925;52.136;5.420;2024-03-29T03:13:40;99136.34;;;7.29;82.81
72061;BME280;59925;52.136;5.420;2024-03-29T03:16:06;99136.84;;;7.31;82.63
72061;BME280;59925;52.136;5.420;2024-03-29T03:18:31;99135.16;;;7.35;82.04
72061;BME280;59925;52.136;5.420;2024-03-29T03:20:57;99142.09;;;7.36;82.46
72061;BME280;59925;52.136;5.420;2024-03-29T03:23:26;99144.47;;;7.38;82.22
72061;BME280;59925;52.136;5.420;2024-03-29T03:25:57;99145.56;;;7.37;82.52
72061;BME280;59925;52.136;5.420;2024-03-29T03:28:23;99154.06;;;7.39;82.57
72061;BME280;59925;52.136;5.420;2024-03-29T03:30:49;99158.03;;;7.42;82.04
72061;BME280;59925;52.136;5.420;2024-03-29T03:33:15;99152.63;;;7.47;82.35
72061;BME280;59925;52.136;5.420;2024-03-29T03:35:42;99161.91;;;7.49;81.91
72061;BME280;59925;52.136;5.420;2024-03-29T03:38:07;99157.59;;;7.54;81.72
72061;BME280;59925;52.136;5.420;2024-03-29T03:40:37;99152.25;;;7.54;81.72
72061;BME280;59925;52.136;5.420;2024-03-29T03:43:03;99160.72;;;7.56;81.92
72061;BME280;59925;52.136;5.420;2024-03-29T03:45:29;99157.22;;;7.60;81.75
72061;BME280;59925;52.136;5.420;2024-03-29T03:47:58;99153.16;;;7.63;81.45
72061;BME280;59925;52.136;5.420;2024-03-29T03:50:24;99160.59;;;7.66;81.59
72061;BME280;59925;52.136;5.420;2024-03-29T03:52:49;99163.75;;;7.68;81.60
72061;BME280;59925;52.136;5.420;2024-03-29T03:55:15;99157.63;;;7.67;81.47
72061;BME280;59925;52.136;5.420;2024-03-29T03:57:40;99162.19;;;7.67;81.78
72061;BME280;59925;52.136;5.420;2024-03-29T04:00:06;99166.91;;;7.70;81.70
72061;BME280;59925;52.136;5.420;2024-03-29T04:02:32;99174.84;;;7.75;81.70
72061;BME280;59925;52.136;5.420;2024-03-29T04:04:58;99164.69;;;7.77;81.78
72061;BME280;59925;52.136;5.420;2024-03-29T04:07:23;99167.25;;;7.82;81.93
72061;BME280;59925;52.136;5.420;2024-03-29T04:09:52;99174.97;;;7.84;81.36
72061;BME280;59925;52.136;5.420;2024-03-29T04:12:18;99172.81;;;7.86;81.60
72061;BME280;59925;52.136;5.420;2024-03-29T04:14:44;99175.19;;;7.88;81.64
72061;BME280;59925;52.136;5.420;2024-03-29T04:17:09;99174.41;;;7.87;81.94
72061;BME280;59925;52.136;5.420;2024-03-29T04:19:35;99174.88;;;7.89;81.75
72061;BME280;59925;52.136;5.420;2024-03-29T04:22:01;99175.59;;;7.95;81.59
72061;BME280;59925;52.136;5.420;2024-03-29T04:24:28;99167.31;;;7.96;81.58
72061;BME280;59925;52.136;5.420;2024-03-29T04:26:53;99156.06;;;8.00;81.62
72061;BME280;59925;52.136;5.420;2024-03-29T04:29:19;99168.78;;;8.03;81.55
72061;BME280;59925;52.136;5.420;2024-03-29T04:31:45;99158.94;;;8.03;81.64
72061;BME280;59925;52.136;5.420;2024-03-29T04:34:11;99163.19;;;8.04;81.68
72061;BME280;59925;52.136;5.420;2024-03-29T04:36:36;99149.53;;;8.06;81.83
72061;BME280;59925;52.136;5.420;2024-03-29T04:39:02;99158.53;;;8.10;81.31
72061;BME280;59925;52.136;5.420;2024-03-29T04:41:27;99157.16;;;8.12;81.54
72061;BME280;59925;52.136;5.420;2024-03-29T04:43:53;99159.75;;;8.18;81.31
72061;BME280;59925;52.136;5.420;2024-03-29T04:46:18;99170.13;;;8.19;81.18
72061;BME280;59925;52.136;5.420;2024-03-29T04:48:44;99172.78;;;8.19;81.87
72061;BME280;59925;52.136;5.420;2024-03-29T04:51:11;99150.03;;;8.22;82.22
72061;BME280;59925;52.136;5.420;2024-03-29T04:53:40;99162.59;;;8.21;82.37
72061;BME280;59925;52.136;5.420;2024-03-29T04:56:06;99158.06;;;8.22;83.54
72061;BME280;59925;52.136;5.420;2024-03-29T04:58:32;99164.78;;;8.19;84.85
72061;BME280;59925;52.136;5.420;2024-03-29T05:00:58;99153.97;;;8.10;85.67
72061;BME280;59925;52.136;5.420;2024-03-29T05:03:24;99175.44;;;8.05;87.60
72061;BME280;59925;52.136;5.420;2024-03-29T05:05:50;99173.16;;;7.98;89.27
72061;BME280;59925;52.136;5.420;2024-03-29T05:08:17;99160.47;;;7.90;89.83
72061;BME280;59925;52.136;5.420;2024-03-29T05:10:44;99173.09;;;7.85;91.86
72061;BME280;59925;52.136;5.420;2024-03-29T05:13:09;99171.09;;;7.76;92.92
72061;BME280;59925;52.136;5.420;2024-03-29T05:15:35;99182.72;;;7.66;94.40
72061;BME280;59925;52.136;5.420;2024-03-29T05:18:00;99180.13;;;7.61;95.39
72061;BME280;59925;52.136;5.420;2024-03-29T05:20:26;99177.75;;;7.60;95.94
72061;BME280;59925;52.136;5.420;2024-03-29T05:22:52;99179.41;;;7.56;97.13
72061;BME280;59925;52.136;5.420;2024-03-29T05:25:17;99164.78;;;7.53;98.18
72061;BME280;59925;52.136;5.420;2024-03-29T05:27:43;99182.94;;;7.51;98.19
72061;BME280;59925;52.136;5.420;2024-03-29T05:30:09;99190.72;;;7.47;99.12
72061;BME280;59925;52.136;5.420;2024-03-29T05:32:39;99199.81;;;7.46;99.61
72061;BME280;59925;52.136;5.420;2024-03-29T05:35:04;99210.47;;;7.46;100.00
72061;BME280;59925;52.136;5.420;2024-03-29T05:37:30;99213.94;;;7.47;100.00
72061;BME280;59925;52.136;5.420;2024-03-29T05:39:56;99222.72;;;7.47;100.00
72061;BME280;59925;52.136;5.420;2024-03-29T05:42:31;99225.09;;;7.49;100.00
72061;BME280;59925;52.136;5.420;2024-03-29T05:44:57;99236.56;;;7.49;100.00
72061;BME280;59925;52.136;5.420;2024-03-29T05:47:22;99232.81;;;7.50;100.00
72061;BME280;59925;52.136;5.420;2024-03-29T05:49:48;99228.56;;;7.49;100.00
72061;BME280;59925;52.136;5.420;2024-03-29T05:52:15;99221.66;;;7.48;100.00
72061;BME280;59925;52.136;5.420;2024-03-29T05:54:42;99246.44;;;7.49;100.00
72061;BME280;59925;52.136;5.420;2024-03-29T05:57:08;99248.81;;;7.50;100.00
72061;BME280;59925;52.136;5.420;2024-03-29T05:59:34;99239.25;;;7.49;100.00
72061;BME280;59925;52.136;5.420;2024-03-29T06:02:00;99243.75;;;7.49;100.00
72061;BME280;59925;52.136;5.420;2024-03-29T06:04:26;99238.72;;;7.47;100.00
72061;BME280;59925;52.136;5.420;2024-03-29T06:07:04;99240.63;;;7.47;100.00
72061;BME280;59925;52.136;5.420;2024-03-29T06:09:31;99252.06;;;7.47;100.00
72061;BME280;59925;52.136;5.420;2024-03-29T06:11:59;99264.88;;;7.45;100.00
72061;BME280;59925;52.136;5.420;2024-03-29T06:14:24;99255.81;;;7.46;100.00
72061;BME280;59925;52.136;5.420;2024-03-29T06:17:09;99263.81;;;7.46;100.00
72061;BME280;59925;52.136;5.420;2024-03-29T06:19:54;99268.56;;;7.49;100.00
72061;BME280;59925;52.136;5.420;2024-03-29T06:22:22;99268.06;;;7.47;100.00
72061;BME280;59925;52.136;5.420;2024-03-29T06:24:49;99272.81;;;7.50;100.00
72061;BME280;59925;52.136;5.420;2024-03-29T06:27:20;99268.56;;;7.49;100.00
72061;BME280;59925;52.136;5.420;2024-03-29T06:29:49;99270.16;;;7.50;100.00
72061;BME280;59925;52.136;5.420;2024-03-29T06:32:15;99265.34;;;7.53;100.00
72061;BME280;59925;52.136;5.420;2024-03-29T06:34:41;99272.16;;;7.59;100.00
72061;BME280;59925;52.136;5.420;2024-03-29T06:37:07;99278.00;;;7.61;100.00
72061;BME280;59925;52.136;5.420;2024-03-29T06:39:33;99273.75;;;7.60;100.00
72061;BME280;59925;52.136;5.420;2024-03-29T06:41:58;99275.56;;;7.64;100.00
72061;BME280;59925;52.136;5.420;2024-03-29T06:44:24;99272.03;;;7.69;100.00
72061;BME280;59925;52.136;5.420;2024-03-29T06:46:50;99274.63;;;7.74;100.00
72061;BME280;59925;52.136;5.420;2024-03-29T06:49:16;99266.84;;;7.78;100.00
72061;BME280;59925;52.136;5.420;2024-03-29T06:51:42;99269.81;;;7.76;100.00
72061;BME280;59925;52.136;5.420;2024-03-29T06:54:07;99266.34;;;7.76;100.00
72061;BME280;59925;52.136;5.420;2024-03-29T06:56:33;99261.81;;;7.76;100.00
72061;BME280;59925;52.136;5.420;2024-03-29T06:58:58;99263.38;;;7.77;100.00
72061;BME280;59925;52.136;5.420;2024-03-29T07:01:24;99263.31;;;7.82;100.00
72061;BME280;59925;52.136;5.420;2024-03-29T07:03:50;99237.78;;;7.76;100.00
72061;BME280;59925;52.136;5.420;2024-03-29T07:06:15;99254.06;;;7.75;100.00
72061;BME280;59925;52.136;5.420;2024-03-29T07:08:41;99254.66;;;7.72;100.00
72061;BME280;59925;52.136;5.420;2024-03-29T07:11:06;99249.53;;;7.75;100.00
72061;BME280;59925;52.136;5.420;2024-03-29T07:13:32;99256.38;;;7.81;100.00
72061;BME280;59925;52.136;5.420;2024-03-29T07:15:58;99259.78;;;7.87;100.00
72061;BME280;59925;52.136;5.420;2024-03-29T07:18:24;99257.47;;;7.80;100.00
72061;BME280;59925;52.136;5.420;2024-03-29T07:20:50;99263.59;;;7.81;100.00
72061;BME280;59925;52.136;5.420;2024-03-29T07:23:16;99262.81;;;7.80;100.00
72061;BME280;59925;52.136;5.420;2024-03-29T07:25:44;99273.50;;;7.80;100.00
72061;BME280;59925;52.136;5.420;2024-03-29T07:28:10;99279.91;;;7.79;100.00
72061;BME280;59925;52.136;5.420;2024-03-29T07:30:36;99276.22;;;7.75;100.00
72061;BME280;59925;52.136;5.420;2024-03-29T07:33:04;99281.97;;;7.82;100.00
72061;BME280;59925;52.136;5.420;2024-03-29T07:35:29;99290.50;;;7.85;100.00
72061;BME280;59925;52.136;5.420;2024-03-29T07:37:55;99304.41;;;7.81;100.00
72061;BME280;59925;52.136;5.420;2024-03-29T07:40:22;99297.50;;;7.80;100.00
72061;BME280;59925;52.136;5.420;2024-03-29T07:42:47;99292.38;;;7.84;100.00
72061;BME280;59925;52.136;5.420;2024-03-29T07:45:13;99301.66;;;7.87;100.00
72061;BME280;59925;52.136;5.420;2024-03-29T07:47:39;99295.47;;;7.91;100.00
72061;BME280;59925;52.136;5.420;2024-03-29T07:50:04;99285.81;;;7.95;100.00
72061;BME280;59925;52.136;5.420;2024-03-29T07:52:33;99290.78;;;8.02;100.00
72061;BME280;59925;52.136;5.420;2024-03-29T07:54:58;99288.00;;;8.07;100.00
72061;BME280;59925;52.136;5.420;2024-03-29T07:57:25;99290.09;;;8.10;100.00
72061;BME280;59925;52.136;5.420;2024-03-29T07:59:51;99294.72;;;8.05;100.00
72061;BME280;59925;52.136;5.420;2024-03-29T08:02:16;99294.88;;;8.13;100.00
72061;BME280;59925;52.136;5.420;2024-03-29T08:04:42;99301.28;;;8.12;100.00
72061;BME280;59925;52.136;5.420;2024-03-29T08:07:08;99285.84;;;8.09;100.00
72061;BME280;59925;52.136;5.420;2024-03-29T08:09:34;99288.09;;;8.02;100.00
72061;BME280;59925;52.136;5.420;2024-03-29T08:11:59;99273.22;;;8.15;100.00
72061;BME280;59925;52.136;5.420;2024-03-29T08:14:25;99266.03;;;8.29;100.00
72061;BME280;59925;52.136;5.420;2024-03-29T08:16:53;99275.38;;;8.32;100.00
72061;BME280;59925;52.136;5.420;2024-03-29T08:19:19;99277.91;;;8.56;100.00
72061;BME280;59925;52.136;5.420;2024-03-29T08:21:45;99297.53;;;8.80;100.00
72061;BME280;59925;52.136;5.420;2024-03-29T08:24:11;99313.06;;;8.78;100.00
72061;BME280;59925;52.136;5.420;2024-03-29T08:26:36;99301.88;;;8.76;100.00
72061;BME280;59925;52.136;5.420;2024-03-29T08:29:02;99305.16;;;8.72;100.00
72061;BME280;59925;52.136;5.420;2024-03-29T08:31:28;99291.72;;;8.92;100.00
72061;BME280;59925;52.136;5.420;2024-03-29T08:33:53;99290.81;;;9.10;100.00
72061;BME280;59925;52.136;5.420;2024-03-29T08:36:19;99277.06;;;9.31;100.00
72061;BME280;59925;52.136;5.420;2024-03-29T08:38:45;99290.09;;;9.60;100.00
72061;BME280;59925;52.136;5.420;2024-03-29T08:41:12;99293.03;;;9.73;100.00
72061;BME280;59925;52.136;5.420;2024-03-29T08:43:37;99300.97;;;9.78;100.00
72061;BME280;59925;52.136;5.420;2024-03-29T08:46:03;99300.75;;;9.74;100.00
72061;BME280;59925;52.136;5.420;2024-03-29T08:48:29;99316.72;;;9.79;100.00
72061;BME280;59925;52.136;5.420;2024-03-29T08:50:54;99318.97;;;9.86;100.00
72061;BME280;59925;52.136;5.420;2024-03-29T08:53:20;99302.00;;;9.91;100.00
72061;BME280;59925;52.136;5.420;2024-03-29T08:55:47;99309.19;;;10.04;100.00
72061;BME280;59925;52.136;5.420;2024-03-29T08:58:16;99323.06;;;10.06;99.96
72061;BME280;59925;52.136;5.420;2024-03-29T09:00:43;99314.19;;;9.97;97.51
72061;BME280;59925;52.136;5.420;2024-03-29T09:03:08;99313.31;;;9.88;98.39
72061;BME280;59925;52.136;5.420;2024-03-29T09:05:34;99319.13;;;10.26;98.94
72061;BME280;59925;52.136;5.420;2024-03-29T09:07:59;99311.59;;;10.51;98.52
72061;BME280;59925;52.136;5.420;2024-03-29T09:10:25;99328.53;;;10.38;96.09
72061;BME280;59925;52.136;5.420;2024-03-29T09:12:52;99318.09;;;10.59;97.34
72061;BME280;59925;52.136;5.420;2024-03-29T09:15:17;99319.81;;;10.86;95.78
72061;BME280;59925;52.136;5.420;2024-03-29T09:17:44;99317.63;;;10.88;94.73
72061;BME280;59925;52.136;5.420;2024-03-29T09:20:10;99318.59;;;10.93;94.51
72061;BME280;59925;52.136;5.420;2024-03-29T09:22:35;99318.34;;;10.71;93.13
72061;BME280;59925;52.136;5.420;2024-03-29T09:25:01;99320.69;;;10.73;93.91
72061;BME280;59925;52.136;5.420;2024-03-29T09:27:27;99313.91;;;10.67;92.31
72061;BME280;59925;52.136;5.420;2024-03-29T09:29:54;99328.94;;;10.54;93.33
72061;BME280;59925;52.136;5.420;2024-03-29T09:32:20;99330.72;;;10.58;93.15
72061;BME280;59925;52.136;5.420;2024-03-29T09:34:47;99338.75;;;10.58;92.81
72061;BME280;59925;52.136;5.420;2024-03-29T09:37:12;99345.25;;;10.66;92.19
72061;BME280;59925;52.136;5.420;2024-03-29T09:39:38;99350.63;;;10.66;91.19
72061;BME280;59925;52.136;5.420;2024-03-29T09:42:06;99353.41;;;10.84;90.52
72061;BME280;59925;52.136;5.420;2024-03-29T09:44:33;99349.63;;;10.85;89.74
72061;BME280;59925;52.136;5.420;2024-03-29T09:47:05;99348.41;;;10.91;90.48
72061;BME280;59925;52.136;5.420;2024-03-29T09:49:32;99350.78;;;10.93;87.65
72061;BME280;59925;52.136;5.420;2024-03-29T09:51:59;99353.09;;;10.85;88.38
72061;BME280;59925;52.136;5.420;2024-03-29T09:54:27;99357.00;;;10.79;87.79
72061;BME280;59925;52.136;5.420;2024-03-29T09:56:55;99368.94;;;10.73;88.17
72061;BME280;59925;52.136;5.420;2024-03-29T09:59:21;99363.72;;;10.68;87.85
72061;BME280;59925;52.136;5.420;2024-03-29T10:01:48;99369.38;;;10.66;87.79
72061;BME280;59925;52.136;5.420;2024-03-29T10:04:15;99379.81;;;10.68;88.19
72061;BME280;59925;52.136;5.420;2024-03-29T10:06:44;99371.75;;;10.68;88.55
72061;BME280;59925;52.136;5.420;2024-03-29T10:09:11;99369.13;;;10.77;89.03
72061;BME280;59925;52.136;5.420;2024-03-29T10:11:37;99357.72;;;10.94;88.83
72061;BME280;59925;52.136;5.420;2024-03-29T10:14:03;99362.97;;;11.08;88.44
72061;BME280;59925;52.136;5.420;2024-03-29T10:16:31;99352.44;;;11.20;87.89
72061;BME280;59925;52.136;5.420;2024-03-29T10:19:00;99346.19;;;11.33;87.77
72061;BME280;59925;52.136;5.420;2024-03-29T10:21:25;99353.66;;;11.45;87.52
72061;BME280;59925;52.136;5.420;2024-03-29T10:23:52;99351.28;;;11.53;86.92
72061;BME280;59925;52.136;5.420;2024-03-29T10:26:17;99344.22;;;11.65;86.82
72061;BME280;59925;52.136;5.420;2024-03-29T10:28:43;99346.16;;;11.91;86.49
72061;BME280;59925;52.136;5.420;2024-03-29T10:31:09;99357.25;;;12.16;85.93
72061;BME280;59925;52.136;5.420;2024-03-29T10:33:34;99352.78;;;12.55;85.27
72061;BME280;59925;52.136;5.420;2024-03-29T10:36:01;99354.38;;;13.13;83.49
72061;BME280;59925;52.136;5.420;2024-03-29T10:38:30;99349.47;;;13.15;79.87
72061;BME280;59925;52.136;5.420;2024-03-29T10:40:56;99351.78;;;13.25;80.62
72061;BME280;59925;52.136;5.420;2024-03-29T10:43:23;99361.72;;;13.42;78.66
72061;BME280;59925;52.136;5.420;2024-03-29T10:45:50;99370.34;;;13.18;77.92
72061;BME280;59925;52.136;5.420;2024-03-29T10:48:21;99368.44;;;12.71;78.22
72061;BME280;59925;52.136;5.420;2024-03-29T10:50:48;99374.91;;;12.70;80.18
72061;BME280;59925;52.136;5.420;2024-03-29T10:53:17;99356.97;;;12.92;77.60
72061;BME280;59925;52.136;5.420;2024-03-29T10:55:43;99353.97;;;13.02;78.42
72061;BME280;59925;52.136;5.420;2024-03-29T10:58:11;99359.63;;;13.09;76.81
72061;BME280;59925;52.136;5.420;2024-03-29T11:00:38;99370.44;;;12.92;77.07
72061;BME280;59925;52.136;5.420;2024-03-29T11:03:26;99376.06;;;13.16;77.30
72061;BME280;59925;52.136;5.420;2024-03-29T11:05:59;99370.31;;;13.27;77.88
72061;BME280;59925;52.136;5.420;2024-03-29T11:08:27;99383.16;;;13.21;76.69
72061;BME280;59925;52.136;5.420;2024-03-29T11:10:58;99383.88;;;13.39;76.86
72061;BME280;59925;52.136;5.420;2024-03-29T11:13:49;99400.53;;;13.32;76.51
72061;BME280;59925;52.136;5.420;2024-03-29T11:16:15;99408.97;;;13.22;76.15
72061;BME280;59925;52.136;5.420;2024-03-29T11:18:47;99408.75;;;13.45;75.39
72061;BME280;59925;52.136;5.420;2024-03-29T11:21:15;99402.59;;;13.36;76.39
72061;BME280;59925;52.136;5.420;2024-03-29T11:23:53;99386.78;;;13.25;75.75
72061;BME280;59925;52.136;5.420;2024-03-29T11:26:19;99380.66;;;13.16;76.33
72061;BME280;59925;52.136;5.420;2024-03-29T11:28:52;99382.38;;;13.21;77.09
72061;BME280;59925;52.136;5.420;2024-03-29T11:31:22;99371.06;;;13.36;77.76
72061;BME280;59925;52.136;5.420;2024-03-29T11:33:48;99372.44;;;13.51;77.70
72061;BME280;59925;52.136;5.420;2024-03-29T11:36:16;99370.28;;;13.66;76.61
72061;BME280;59925;52.136;5.420;2024-03-29T11:38:44;99374.78;;;13.61;75.29
72061;BME280;59925;52.136;5.420;2024-03-29T11:41:12;99377.19;;;13.54;74.90
72061;BME280;59925;52.136;5.420;2024-03-29T11:43:38;99374.81;;;14.04;75.97
72061;BME280;59925;52.136;5.420;2024-03-29T11:46:07;99358.97;;;14.23;75.10
72061;BME280;59925;52.136;5.420;2024-03-29T11:48:33;99378.75;;;14.06;73.57
72061;BME280;59925;52.136;5.420;2024-03-29T11:51:00;99380.78;;;13.88;73.47
72061;BME280;59925;52.136;5.420;2024-03-29T11:53:27;99379.59;;;13.98;73.37
72061;BME280;59925;52.136;5.420;2024-03-29T11:55:59;99376.38;;;14.05;73.50
72061;BME280;59925;52.136;5.420;2024-03-29T11:58:28;99390.25;;;13.94;69.92
72061;BME280;59925;52.136;5.420;2024-03-29T12:00:54;99386.97;;;13.59;70.84
72061;BME280;59925;52.136;5.420;2024-03-29T12:03:21;99395.41;;;13.48;71.49
72061;BME280;59925;52.136;5.420;2024-03-29T12:05:49;99384.84;;;13.73;71.68
72061;BME280;59925;52.136;5.420;2024-03-29T12:08:28;99394.13;;;14.27;70.73
72061;BME280;59925;52.136;5.420;2024-03-29T12:10:54;99403.31;;;14.05;69.28
72061;BME280;59925;52.136;5.420;2024-03-29T12:13:19;99402.84;;;13.82;70.38
72061;BME280;59925;52.136;5.420;2024-03-29T12:15:45;99406.75;;;13.63;71.32
72061;BME280;59925;52.136;5.420;2024-03-29T12:18:11;99420.28;;;13.45;71.21
72061;BME280;59925;52.136;5.420;2024-03-29T12:20:38;99436.13;;;13.47;70.51
72061;BME280;59925;52.136;5.420;2024-03-29T12:23:08;99419.78;;;13.52;70.91
72061;BME280;59925;52.136;5.420;2024-03-29T12:25:36;99420.69;;;13.65;70.38
72061;BME280;59925;52.136;5.420;2024-03-29T12:28:03;99413.72;;;13.64;71.16
72061;BME280;59925;52.136;5.420;2024-03-29T12:30:29;99415.34;;;13.86;70.50
72061;BME280;59925;52.136;5.420;2024-03-29T12:33:05;99418.69;;;13.83;70.57
72061;BME280;59925;52.136;5.420;2024-03-29T12:35:41;99437.38;;;13.88;70.49
72061;BME280;59925;52.136;5.420;2024-03-29T12:38:07;99418.31;;;13.93;70.77
72061;BME280;59925;52.136;5.420;2024-03-29T12:40:33;99431.34;;;14.13;70.28
72061;BME280;59925;52.136;5.420;2024-03-29T12:43:04;99432.72;;;14.40;70.81
72061;BME280;59925;52.136;5.420;2024-03-29T12:45:31;99430.22;;;14.35;70.12
72061;BME280;59925;52.136;5.420;2024-03-29T12:47:57;99427.63;;;14.60;71.21
72061;BME280;59925;52.136;5.420;2024-03-29T12:50:27;99422.41;;;14.42;69.54
72061;BME280;59925;52.136;5.420;2024-03-29T12:53:07;99415.09;;;14.43;69.08
72061;BME280;59925;52.136;5.420;2024-03-29T12:55:33;99424.31;;;14.20;68.96
72061;BME280;59925;52.136;5.420;2024-03-29T12:58:05;99424.72;;;14.31;69.18
72061;BME280;59925;52.136;5.420;2024-03-29T13:00:36;99431.47;;;14.37;68.43
72061;BME280;59925;52.136;5.420;2024-03-29T13:03:02;99426.75;;;14.34;67.69